Time;durP1;ratioP1;P1;durP2;ratioP2;P2;SDS_P1;SDS_P2;PMS_P1;PMS_P2;Temp;Humidity;BMP_temperature;BMP_pressure;BME280_temperature;BME280_humidity;BME280_pressure;Samples;Min_cycle;Max_cycle;Signal;HPM_P1;HPM_P2
2023/09/20 00:00:14;;;;;;;3.80;2.87;;;15.80;99.90;;;;;;5036005;28;20503;-74
2023/09/20 00:02:41;;;;;;;3.07;2.33;;;15.80;99.90;;;;;;5033217;28;20443;-74
2023/09/20 00:05:14;;;;;;;7.70;2.67;;;15.80;99.90;;;;;;5033378;28;20877;-74
2023/09/20 00:07:41;;;;;;;4.90;2.50;;;15.80;99.90;;;;;;5036241;28;20423;-74
2023/09/20 00:10:12;;;;;;;5.87;2.50;;;15.80;99.90;;;;;;5035851;28;20416;-75
2023/09/20 00:12:40;;;;;;;5.10;2.40;;;15.80;99.90;;;;;;5037821;28;20469;-74
2023/09/20 00:15:09;;;;;;;9.47;2.43;;;15.80;99.90;;;;;;5036257;28;20519;-75
2023/09/20 00:17:36;;;;;;;5.50;2.63;;;15.80;99.90;;;;;;5038327;28;21223;-74
2023/09/20 00:20:11;;;;;;;5.30;2.60;;;15.80;99.90;;;;;;5034815;28;20428;-75
2023/09/20 00:22:40;;;;;;;4.50;2.97;;;15.70;99.90;;;;;;5037789;28;20478;-75
2023/09/20 00:25:07;;;;;;;3.23;2.57;;;15.70;99.90;;;;;;5035544;28;20931;-74
2023/09/20 00:27:35;;;;;;;9.03;2.80;;;15.60;99.90;;;;;;5038230;28;20424;-74
2023/09/20 00:30:02;;;;;;;14.83;2.93;;;15.60;99.90;;;;;;5034887;28;20428;-74
2023/09/20 00:32:31;;;;;;;4.23;2.53;;;15.50;99.90;;;;;;5037239;28;20447;-74
2023/09/20 00:34:57;;;;;;;3.33;2.17;;;15.50;99.90;;;;;;5035566;28;20438;-74
2023/09/20 00:37:24;;;;;;;5.87;2.30;;;15.40;99.90;;;;;;5033869;28;20488;-74
2023/09/20 00:39:51;;;;;;;6.00;2.63;;;15.40;99.90;;;;;;5036785;28;20423;-74
2023/09/20 00:42:17;;;;;;;10.73;2.57;;;15.40;99.90;;;;;;5032922;28;20529;-74
2023/09/20 00:44:44;;;;;;;3.90;2.50;;;15.30;99.90;;;;;;5034791;28;20464;-75
2023/09/20 00:47:11;;;;;;;4.57;2.90;;;15.30;99.90;;;;;;5033565;28;20433;-74
2023/09/20 00:49:41;;;;;;;6.03;2.70;;;15.30;99.90;;;;;;5040042;28;20517;-75
2023/09/20 00:52:09;;;;;;;7.70;3.07;;;15.30;99.90;;;;;;5041804;28;20473;-74
2023/09/20 00:54:36;;;;;;;4.10;2.67;;;15.30;99.90;;;;;;5040341;28;20922;-74
2023/09/20 00:57:05;;;;;;;5.80;2.63;;;15.20;99.90;;;;;;5039295;28;20450;-74
2023/09/20 00:59:32;;;;;;;7.63;2.87;;;15.20;99.90;;;;;;5040978;28;20484;-74
2023/09/20 01:02:00;;;;;;;4.87;3.17;;;15.20;99.90;;;;;;5029096;28;20522;-75
2023/09/20 01:04:28;;;;;;;4.67;2.70;;;15.20;99.90;;;;;;5039774;28;20485;-74
2023/09/20 01:06:56;;;;;;;3.87;2.67;;;15.10;99.90;;;;;;5039788;28;20424;-75
2023/09/20 01:09:24;;;;;;;5.27;3.00;;;15.10;99.90;;;;;;5039795;28;20451;-74
2023/09/20 01:11:51;;;;;;;5.10;2.53;;;15.10;99.90;;;;;;5037023;28;20486;-74
2023/09/20 01:14:19;;;;;;;3.43;2.30;;;15.10;99.90;;;;;;5038607;28;20514;-74
2023/09/20 01:16:46;;;;;;;6.30;2.80;;;15.10;99.90;;;;;;5037571;28;20481;-74
2023/09/20 01:19:13;;;;;;;3.10;2.63;;;15.00;99.90;;;;;;5038805;28;20446;-74
2023/09/20 01:21:43;;;;;;;6.27;2.60;;;15.00;99.90;;;;;;5039104;28;20549;-75
2023/09/20 01:24:10;;;;;;;5.23;2.90;;;15.00;99.90;;;;;;5038386;28;20525;-74
2023/09/20 01:26:39;;;;;;;4.30;2.70;;;15.00;99.90;;;;;;5040024;28;20532;-74
2023/09/20 01:29:06;;;;;;;4.80;3.00;;;14.90;99.90;;;;;;5038331;28;20486;-74
2023/09/20 01:31:33;;;;;;;6.13;2.50;;;14.90;99.90;;;;;;5039748;28;20475;-75
2023/09/20 01:34:00;;;;;;;6.70;2.90;;;14.90;99.90;;;;;;5044323;28;20482;-75
2023/09/20 01:36:27;;;;;;;5.27;2.53;;;14.90;99.90;;;;;;5037003;28;20423;-74
2023/09/20 01:38:54;;;;;;;3.30;2.67;;;14.80;99.90;;;;;;5038369;28;20473;-74
2023/09/20 01:41:22;;;;;;;4.77;2.60;;;14.80;99.90;;;;;;5037841;28;20494;-74
2023/09/20 01:43:48;;;;;;;4.70;2.43;;;14.80;99.90;;;;;;5039075;28;20477;-74
2023/09/20 01:46:15;;;;;;;4.40;2.73;;;14.80;99.90;;;;;;5034091;28;20486;-74
2023/09/20 01:48:42;;;;;;;4.57;2.73;;;14.80;99.90;;;;;;5040115;28;20441;-74
2023/09/20 01:51:09;;;;;;;6.00;3.00;;;14.80;99.90;;;;;;5036996;28;20931;-75
2023/09/20 01:53:36;;;;;;;2.60;2.40;;;14.80;99.90;;;;;;5039429;28;20428;-75
2023/09/20 01:56:04;;;;;;;10.80;2.57;;;14.80;99.90;;;;;;5037418;28;20454;-75
2023/09/20 01:58:31;;;;;;;2.73;2.27;;;14.70;99.90;;;;;;5037669;28;20429;-74
2023/09/20 02:00:58;;;;;;;5.90;2.67;;;14.80;99.90;;;;;;5037126;28;20805;-74
2023/09/20 02:03:27;;;;;;;5.33;2.67;;;14.80;99.90;;;;;;5034543;28;20542;-75
2023/09/20 02:05:54;;;;;;;7.80;2.60;;;14.70;99.90;;;;;;5037940;28;20432;-75
2023/09/20 02:08:20;;;;;;;2.90;2.70;;;14.70;99.90;;;;;;5037057;28;20657;-75
2023/09/20 02:10:47;;;;;;;6.40;2.30;;;14.70;99.90;;;;;;5038243;28;20427;-75
2023/09/20 02:13:16;;;;;;;4.50;2.63;;;14.60;99.90;;;;;;5035129;28;20535;-74
2023/09/20 02:15:44;;;;;;;4.93;2.57;;;14.60;99.90;;;;;;5036628;28;20458;-75
2023/09/20 02:18:11;;;;;;;3.73;2.70;;;14.60;99.90;;;;;;5037089;28;20519;-74
2023/09/20 02:20:38;;;;;;;6.63;2.57;;;14.60;99.90;;;;;;5036714;28;20428;-74
2023/09/20 02:23:06;;;;;;;5.77;2.97;;;14.60;99.90;;;;;;5036828;28;20465;-75
2023/09/20 02:25:33;;;;;;;5.27;2.70;;;14.60;99.90;;;;;;5038336;28;20456;-75
2023/09/20 02:28:01;;;;;;;5.23;2.77;;;14.50;99.90;;;;;;5030624;28;20480;-74
2023/09/20 02:30:32;;;;;;;6.03;2.77;;;14.50;99.90;;;;;;5036420;28;20435;-75
2023/09/20 02:32:59;;;;;;;4.60;2.80;;;14.50;99.90;;;;;;5036641;28;20548;-74
2023/09/20 02:35:27;;;;;;;7.90;2.90;;;14.40;99.90;;;;;;5037304;28;20540;-75
2023/09/20 02:37:56;;;;;;;7.23;2.80;;;14.40;99.90;;;;;;5035850;28;21831;-74
2023/09/20 02:40:23;;;;;;;8.37;3.03;;;14.50;99.90;;;;;;5035562;28;20440;-74
2023/09/20 02:42:52;;;;;;;3.40;2.70;;;14.40;99.90;;;;;;5036352;28;20483;-75
2023/09/20 02:45:20;;;;;;;4.33;2.73;;;14.40;99.90;;;;;;5036102;28;20559;-74
2023/09/20 02:47:48;;;;;;;2.93;2.67;;;14.40;99.90;;;;;;5035975;28;20514;-75
2023/09/20 02:50:18;;;;;;;3.73;2.87;;;14.30;99.90;;;;;;5038229;28;20453;-74
2023/09/20 02:52:45;;;;;;;6.33;2.77;;;14.30;99.90;;;;;;5036932;28;20446;-75
2023/09/20 02:55:13;;;;;;;2.83;2.50;;;14.30;99.90;;;;;;5035764;28;20520;-74
2023/09/20 02:57:41;;;;;;;3.07;2.77;;;14.30;99.90;;;;;;5037553;28;20431;-75
2023/09/20 03:00:16;;;;;;;5.37;3.00;;;14.20;99.90;;;;;;5035385;28;20465;-74
2023/09/20 03:02:45;;;;;;;5.53;3.13;;;14.30;99.90;;;;;;5033075;28;20472;-75
2023/09/20 03:05:16;;;;;;;6.23;3.13;;;14.20;99.90;;;;;;5034716;28;20563;-75
2023/09/20 03:07:44;;;;;;;5.93;3.00;;;14.20;99.90;;;;;;5017623;28;20493;-75
2023/09/20 03:10:12;;;;;;;6.73;3.27;;;14.10;99.90;;;;;;5034204;28;21055;-74
2023/09/20 03:12:42;;;;;;;5.87;2.97;;;14.10;99.90;;;;;;5036261;28;20489;-74
2023/09/20 03:15:10;;;;;;;6.13;3.10;;;14.10;99.90;;;;;;5034823;28;20581;-75
2023/09/20 03:17:37;;;;;;;4.40;2.77;;;14.10;99.90;;;;;;5035798;28;20460;-75
2023/09/20 03:20:10;;;;;;;5.10;3.17;;;14.00;99.90;;;;;;5034770;28;20541;-75
2023/09/20 03:22:38;;;;;;;8.23;3.47;;;14.10;99.90;;;;;;5035976;28;20473;-74
2023/09/20 03:25:06;;;;;;;6.27;3.40;;;14.00;99.90;;;;;;5034544;28;21014;-75
2023/09/20 03:27:33;;;;;;;5.43;3.30;;;14.00;99.90;;;;;;5035447;28;20562;-74
2023/09/20 03:30:00;;;;;;;4.83;3.60;;;14.00;99.90;;;;;;5027415;28;20820;-74
2023/09/20 03:32:26;;;;;;;5.40;3.07;;;13.90;99.90;;;;;;5034186;28;21037;-74
2023/09/20 03:34:55;;;;;;;4.90;3.00;;;13.90;99.90;;;;;;5037507;28;20448;-75
2023/09/20 03:37:21;;;;;;;5.73;3.37;;;13.90;99.90;;;;;;5035251;28;20428;-75
2023/09/20 03:39:51;;;;;;;5.00;3.20;;;13.80;99.90;;;;;;5035069;28;20802;-74
2023/09/20 03:42:17;;;;;;;9.27;3.27;;;14.00;99.90;;;;;;5033610;28;20440;-74
2023/09/20 03:44:45;;;;;;;5.83;3.00;;;13.90;99.90;;;;;;5033410;28;20998;-75
2023/09/20 03:47:12;;;;;;;4.37;3.40;;;13.90;99.90;;;;;;5032999;28;20482;-75
2023/09/20 03:49:38;;;;;;;3.63;2.90;;;13.90;99.90;;;;;;5034854;28;20449;-74
2023/09/20 03:52:06;;;;;;;3.90;2.83;;;13.90;99.90;;;;;;5033210;28;20498;-74
2023/09/20 03:54:33;;;;;;;3.73;3.10;;;13.90;99.90;;;;;;5034168;28;20535;-74
2023/09/20 03:57:02;;;;;;;2.83;2.63;;;13.90;99.90;;;;;;5026513;28;20846;-75
2023/09/20 03:59:32;;;;;;;8.73;2.97;;;14.00;99.90;;;;;;5033499;28;20458;-75
2023/09/20 04:01:59;;;;;;;5.50;3.20;;;14.00;99.90;;;;;;5031825;28;20519;-75
2023/09/20 04:04:25;;;;;;;6.50;3.40;;;14.00;99.90;;;;;;5033033;28;20903;-74
2023/09/20 04:06:52;;;;;;;5.00;3.00;;;14.00;99.90;;;;;;5032314;28;20518;-75
2023/09/20 04:09:20;;;;;;;3.13;2.80;;;14.00;99.90;;;;;;5033235;28;20446;-75
2023/09/20 04:11:47;;;;;;;9.23;3.40;;;14.00;99.90;;;;;;5033377;28;21264;-75
2023/09/20 04:14:15;;;;;;;3.20;2.50;;;14.00;99.90;;;;;;5032897;28;20457;-75
2023/09/20 04:16:42;;;;;;;3.73;3.10;;;14.00;99.90;;;;;;5033783;28;20424;-74
2023/09/20 04:19:09;;;;;;;7.73;2.90;;;14.00;99.90;;;;;;5032398;28;20453;-74
2023/09/20 04:21:36;;;;;;;2.93;2.60;;;14.00;99.90;;;;;;5032078;28;20552;-74
2023/09/20 04:24:05;;;;;;;6.13;3.17;;;13.90;99.90;;;;;;5031895;28;20524;-74
2023/09/20 04:26:31;;;;;;;3.13;2.87;;;13.90;99.90;;;;;;5032653;28;20475;-74
2023/09/20 04:28:58;;;;;;;12.90;3.23;;;13.90;99.90;;;;;;5038850;28;20446;-74
2023/09/20 04:31:27;;;;;;;5.00;3.40;;;13.90;99.90;;;;;;5031843;28;20478;-73
2023/09/20 04:33:54;;;;;;;6.10;3.03;;;13.90;99.90;;;;;;5034798;28;20547;-73
2023/09/20 04:36:21;;;;;;;3.00;2.70;;;13.90;99.90;;;;;;5033982;28;20445;-74
2023/09/20 04:38:47;;;;;;;4.20;2.80;;;13.90;99.90;;;;;;5032152;28;20424;-74
2023/09/20 04:41:14;;;;;;;3.53;3.07;;;13.90;99.90;;;;;;5031800;28;20445;-74
2023/09/20 04:43:41;;;;;;;5.53;3.07;;;13.90;99.90;;;;;;5032600;28;20449;-74
2023/09/20 04:46:08;;;;;;;4.70;2.90;;;13.90;99.90;;;;;;5031027;28;20999;-74
2023/09/20 04:48:37;;;;;;;5.73;2.67;;;13.90;99.90;;;;;;5032188;28;20831;-75
2023/09/20 04:51:04;;;;;;;7.80;3.20;;;13.90;99.90;;;;;;5024429;28;20473;-74
2023/09/20 04:53:33;;;;;;;5.37;3.10;;;13.90;99.90;;;;;;5032455;28;20432;-74
2023/09/20 04:56:00;;;;;;;3.53;2.83;;;13.90;99.90;;;;;;5030410;28;20460;-74
2023/09/20 04:58:27;;;;;;;3.87;3.23;;;13.90;99.90;;;;;;5031027;28;20824;-74
2023/09/20 05:00:54;;;;;;;3.87;2.90;;;13.90;99.90;;;;;;5032135;28;20423;-74
2023/09/20 05:03:21;;;;;;;3.67;2.93;;;13.90;99.90;;;;;;5031450;28;20500;-74
2023/09/20 05:05:51;;;;;;;4.40;3.67;;;13.90;99.90;;;;;;5031447;28;20543;-74
2023/09/20 05:08:18;;;;;;;3.73;2.93;;;13.90;99.90;;;;;;5031028;28;20450;-74
2023/09/20 05:10:45;;;;;;;5.10;3.13;;;14.00;99.90;;;;;;5030541;28;20444;-74
2023/09/20 05:13:12;;;;;;;7.87;3.60;;;14.00;99.90;;;;;;5030967;28;20522;-74
2023/09/20 05:15:38;;;;;;;8.63;3.50;;;14.00;99.90;;;;;;5031256;28;20424;-75
2023/09/20 05:18:06;;;;;;;7.83;3.53;;;14.10;99.90;;;;;;5031023;28;20432;-74
2023/09/20 05:20:33;;;;;;;5.70;3.60;;;14.10;99.90;;;;;;5030293;28;20516;-74
2023/09/20 05:23:04;;;;;;;3.37;2.93;;;14.10;99.90;;;;;;5019489;28;20451;-75
2023/09/20 05:25:31;;;;;;;6.03;3.27;;;14.20;99.90;;;;;;5030805;28;20462;-75
2023/09/20 05:27:57;;;;;;;4.97;3.20;;;14.20;99.90;;;;;;5030599;28;20477;-75
2023/09/20 05:30:25;;;;;;;5.13;2.97;;;14.20;99.90;;;;;;5029709;28;20927;-73
2023/09/20 05:32:51;;;;;;;7.07;3.50;;;14.30;99.90;;;;;;5030600;28;20261;-73
2023/09/20 05:35:18;;;;;;;5.07;3.20;;;14.30;99.90;;;;;;5033134;28;20457;-74
2023/09/20 05:37:45;;;;;;;4.40;3.00;;;14.30;99.90;;;;;;5033911;28;20521;-73
2023/09/20 05:40:17;;;;;;;13.37;4.00;;;14.40;99.90;;;;;;5033881;28;20482;-73
2023/09/20 05:42:44;;;;;;;6.43;3.67;;;14.40;99.90;;;;;;5033637;28;20823;-73
2023/09/20 05:45:12;;;;;;;13.10;4.40;;;14.40;99.90;;;;;;5033635;28;20460;-73
2023/09/20 05:47:39;;;;;;;3.87;3.33;;;14.40;99.90;;;;;;5033171;28;20902;-73
2023/09/20 05:50:10;;;;;;;5.43;3.37;;;14.40;99.90;;;;;;5035625;28;20572;-73
2023/09/20 05:52:40;;;;;;;8.03;3.80;;;14.40;99.90;;;;;;5053344;28;20455;-73
2023/09/20 05:55:13;;;;;;;10.07;3.53;;;14.40;99.90;;;;;;5050772;28;20449;-73
2023/09/20 05:57:41;;;;;;;8.70;3.57;;;14.50;99.90;;;;;;5050012;28;20506;-73
2023/09/20 06:00:16;;;;;;;10.10;3.67;;;14.60;99.90;;;;;;5053155;28;20427;-73
2023/09/20 06:02:43;;;;;;;4.90;3.10;;;14.60;99.90;;;;;;5047113;28;20469;-73
2023/09/20 06:05:11;;;;;;;6.83;3.20;;;14.60;99.90;;;;;;5052821;28;20480;-73
2023/09/20 06:07:37;;;;;;;5.73;2.43;;;14.70;99.90;;;;;;5052407;28;20428;-73
2023/09/20 06:10:05;;;;;;;6.23;3.03;;;14.80;99.90;;;;;;5031937;28;20452;-73
2023/09/20 06:12:32;;;;;;;4.60;3.10;;;14.90;99.90;;;;;;5051993;28;20546;-73
2023/09/20 06:15:00;;;;;;;3.27;2.97;;;15.00;99.90;;;;;;5051439;28;20531;-73
2023/09/20 06:17:29;;;;;;;6.13;2.73;;;15.10;99.90;;;;;;5043680;28;20424;-73
2023/09/20 06:19:56;;;;;;;7.60;3.30;;;15.30;99.90;;;;;;5050074;28;20435;-73
2023/09/20 06:22:23;;;;;;;4.13;2.97;;;15.50;99.90;;;;;;5047912;28;20458;-73
2023/09/20 06:24:50;;;;;;;8.20;3.87;;;15.70;99.90;;;;;;5049029;28;20448;-73
2023/09/20 06:27:16;;;;;;;7.80;3.20;;;15.90;99.90;;;;;;5051977;28;20435;-74
2023/09/20 06:29:43;;;;;;;6.60;3.63;;;16.00;99.90;;;;;;5044694;28;20424;-73
2023/09/20 06:32:12;;;;;;;7.83;3.63;;;16.00;99.90;;;;;;5045777;28;20551;-73
2023/09/20 06:34:39;;;;;;;7.03;3.83;;;15.90;99.90;;;;;;5048172;28;20431;-73
2023/09/20 06:37:06;;;;;;;13.73;3.77;;;15.80;99.90;;;;;;5051364;28;20891;-74
2023/09/20 06:39:32;;;;;;;4.40;3.17;;;15.80;99.90;;;;;;5051140;28;20955;-73
2023/09/20 06:41:59;;;;;;;8.00;3.50;;;15.80;99.90;;;;;;5050560;28;20504;-73
2023/09/20 06:44:26;;;;;;;4.33;3.20;;;15.80;99.90;;;;;;5038725;28;20461;-73
2023/09/20 06:46:52;;;;;;;3.90;2.83;;;15.80;99.90;;;;;;5048466;28;20980;-73
2023/09/20 06:49:20;;;;;;;5.80;3.53;;;15.90;99.90;;;;;;5048595;28;20450;-73
2023/09/20 06:51:47;;;;;;;4.97;2.87;;;16.00;99.90;;;;;;5049968;28;20489;-73
2023/09/20 06:54:14;;;;;;;4.80;2.87;;;16.10;99.90;;;;;;5051078;28;20488;-74
2023/09/20 06:56:42;;;;;;;9.07;3.80;;;16.10;99.90;;;;;;5043393;28;20837;-74
2023/09/20 06:59:09;;;;;;;7.03;3.33;;;16.10;99.90;;;;;;5044155;28;20491;-74
2023/09/20 07:01:35;;;;;;;9.30;3.23;;;16.10;99.90;;;;;;5044314;28;20448;-73
2023/09/20 07:04:02;;;;;;;6.80;3.47;;;16.00;99.90;;;;;;5049976;28;20445;-74
2023/09/20 07:06:31;;;;;;;7.77;3.77;;;16.00;99.90;;;;;;5043793;28;20493;-74
2023/09/20 07:08:58;;;;;;;5.60;3.37;;;16.00;99.90;;;;;;5040620;28;20436;-73
2023/09/20 07:11:26;;;;;;;3.23;2.93;;;16.00;99.90;;;;;;5047895;28;20551;-73
2023/09/20 07:13:53;;;;;;;9.30;3.50;;;16.00;99.90;;;;;;5043103;28;20434;-73
2023/09/20 07:16:20;;;;;;;4.03;2.87;;;16.10;99.90;;;;;;5050039;28;20427;-72
2023/09/20 07:18:48;;;;;;;9.80;2.70;;;16.20;99.90;;;;;;5048738;28;20921;-72
2023/09/20 07:21:15;;;;;;;6.90;2.63;;;16.40;99.90;;;;;;5049585;28;20778;-73
2023/09/20 07:23:43;;;;;;;10.17;3.37;;;16.60;99.90;;;;;;5048694;28;20427;-72
2023/09/20 07:26:10;;;;;;;3.93;2.77;;;16.60;99.90;;;;;;5049565;28;20458;-73
2023/09/20 07:28:37;;;;;;;5.90;2.90;;;16.70;99.90;;;;;;5033384;28;20519;-73
2023/09/20 07:31:03;;;;;;;4.77;2.90;;;16.70;99.90;;;;;;5036702;28;20459;-73
2023/09/20 07:33:31;;;;;;;6.63;2.80;;;16.70;99.90;;;;;;5042385;28;20453;-73
2023/09/20 07:36:00;;;;;;;5.67;3.10;;;16.80;99.90;;;;;;5048130;28;20424;-73
2023/09/20 07:38:28;;;;;;;5.13;3.07;;;16.90;99.90;;;;;;5043020;28;20486;-72
2023/09/20 07:41:12;;;;;;;3.27;2.30;;;16.90;99.90;;;;;;5039798;28;20809;-73
2023/09/20 07:43:38;;;;;;;7.10;2.80;;;17.00;99.90;;;;;;5042503;28;20432;-73
2023/09/20 07:46:07;;;;;;;7.67;3.00;;;17.10;99.90;;;;;;5041482;28;20496;-73
2023/09/20 07:48:33;;;;;;;4.07;2.70;;;17.20;99.90;;;;;;5048079;28;20476;-73
2023/09/20 07:51:01;;;;;;;5.20;3.30;;;17.30;99.90;;;;;;5045180;28;20962;-74
2023/09/20 07:53:28;;;;;;;5.40;3.10;;;17.30;99.90;;;;;;5048187;28;20934;-73
2023/09/20 07:56:00;;;;;;;9.03;2.87;;;17.30;99.90;;;;;;5042537;28;20908;-73
2023/09/20 07:58:28;;;;;;;4.03;2.70;;;17.40;99.90;;;;;;5045383;28;20484;-73
2023/09/20 08:00:57;;;;;;;5.77;2.93;;;17.70;99.90;;;;;;5045187;28;20424;-73
2023/09/20 08:03:24;;;;;;;9.93;2.50;;;18.00;99.90;;;;;;5042553;28;20454;-74
2023/09/20 08:05:51;;;;;;;4.33;2.73;;;18.50;99.90;;;;;;5039846;28;20488;-73
2023/09/20 08:08:18;;;;;;;5.10;2.60;;;19.00;99.90;;;;;;5043184;28;20528;-73
2023/09/20 08:10:45;;;;;;;3.90;2.80;;;19.30;99.90;;;;;;5043575;28;20449;-74
2023/09/20 08:13:12;;;;;;;4.27;3.10;;;19.60;99.90;;;;;;5040812;28;20976;-73
2023/09/20 08:15:42;;;;;;;4.83;2.87;;;19.70;99.90;;;;;;5046107;28;20937;-74
2023/09/20 08:20:53;;;;;;;3.20;2.20;;;19.80;99.90;;;;;;5042156;28;20502;-74
2023/09/20 09:01:47;;;;;;;5.63;2.40;;;19.70;99.90;;;;;;5026869;28;20530;-73
2023/09/20 09:04:18;;;;;;;5.10;2.50;;;19.50;99.90;;;;;;5041532;28;20510;-73
2023/09/20 09:06:45;;;;;;;3.97;2.10;;;19.60;99.90;;;;;;5041830;28;20515;-73
2023/09/20 09:09:12;;;;;;;3.27;2.20;;;19.60;99.90;;;;;;5042332;28;20489;-73
2023/09/20 09:11:40;;;;;;;3.43;2.20;;;19.70;99.90;;;;;;5040710;28;20489;-74
2023/09/20 09:14:07;;;;;;;3.30;2.17;;;19.70;99.90;;;;;;5042215;28;20619;-74
2023/09/20 09:16:34;;;;;;;2.70;2.30;;;19.80;99.90;;;;;;5043469;28;20456;-73
2023/09/20 09:19:01;;;;;;;5.57;1.87;;;19.90;99.90;;;;;;5045262;28;20449;-72
2023/09/20 09:21:30;;;;;;;5.63;2.33;;;19.80;99.90;;;;;;5049055;28;20851;-73
2023/09/20 09:23:57;;;;;;;2.27;2.03;;;19.80;99.90;;;;;;5043423;28;20484;-72
2023/09/20 09:26:25;;;;;;;7.07;2.80;;;19.90;99.90;;;;;;5045655;28;20534;-72
2023/09/20 09:28:52;;;;;;;7.87;2.77;;;19.80;99.90;;;;;;5040577;28;20457;-73
2023/09/20 09:31:18;;;;;;;7.47;2.37;;;19.90;99.90;;;;;;5046513;28;20495;-73
2023/09/20 09:33:46;;;;;;;3.07;2.33;;;19.90;99.90;;;;;;5040507;28;20515;-74
2023/09/20 09:36:13;;;;;;;4.27;2.00;;;20.20;99.90;;;;;;5048037;28;20840;-74
2023/09/20 09:38:41;;;;;;;15.57;8.17;;;20.50;99.90;;;;;;5041629;28;20486;-73
2023/09/20 09:41:10;;;;;;;18.20;11.07;;;21.00;99.90;;;;;;5038686;28;20457;-74
2023/09/20 09:43:38;;;;;;;7.40;3.90;;;21.20;99.90;;;;;;5039683;28;20852;-73
2023/09/20 09:46:07;;;;;;;7.17;3.40;;;21.60;99.90;;;;;;5041328;28;20589;-73
2023/09/20 09:48:34;;;;;;;14.03;5.67;;;21.50;99.90;;;;;;5042729;28;20456;-73
2023/09/20 09:51:01;;;;;;;4.43;3.13;;;21.50;99.90;;;;;;5043123;28;20441;-73
2023/09/20 09:53:30;;;;;;;10.17;2.70;;;21.70;99.90;;;;;;5044746;28;20452;-74
2023/09/20 09:55:59;;;;;;;4.70;2.97;;;22.00;99.90;;;;;;5045012;28;20445;-73
2023/09/20 09:58:26;;;;;;;4.70;3.27;;;22.00;99.90;;;;;;5037490;28;20543;-73
2023/09/20 10:00:54;;;;;;;7.37;2.70;;;22.00;99.90;;;;;;5034418;28;20536;-73
2023/09/20 10:03:29;;;;;;;3.53;2.27;;;22.00;99.90;;;;;;5033888;28;20472;-73
2023/09/20 10:06:01;;;;;;;6.23;2.70;;;22.30;99.90;;;;;;5041290;28;20493;-74
2023/09/20 10:08:32;;;;;;;4.50;2.20;;;22.40;99.90;;;;;;5047325;28;20942;-74
2023/09/20 10:11:05;;;;;;;3.00;2.07;;;22.50;99.90;;;;;;5044016;28;20458;-75
2023/09/20 10:13:33;;;;;;;7.63;2.10;;;22.70;99.90;;;;;;5043766;28;20475;-74
2023/09/20 10:16:02;;;;;;;9.07;2.83;;;22.70;99.90;;;;;;5044049;28;20454;-72
2023/09/20 10:18:32;;;;;;;6.17;2.23;;;23.10;99.90;;;;;;5042994;28;20531;-74
2023/09/20 10:21:04;;;;;;;2.00;1.90;;;23.30;99.90;;;;;;5042403;28;20449;-74
2023/09/20 10:23:34;;;;;;;3.10;2.13;;;23.40;99.90;;;;;;5043482;28;20499;-73
2023/09/20 10:26:02;;;;;;;3.93;2.20;;;23.50;99.90;;;;;;5037947;28;20982;-73
2023/09/20 10:28:38;;;;;;;2.20;2.03;;;23.60;99.90;;;;;;5041060;28;20539;-74
2023/09/20 10:31:06;;;;;;;7.63;2.03;;;23.20;99.90;;;;;;5040040;28;20552;-74
2023/09/20 10:33:45;;;;;;;2.60;2.17;;;22.80;99.90;;;;;;5043415;28;20958;-73
2023/09/20 10:36:23;;;;;;;8.30;2.50;;;22.70;99.90;;;;;;5041042;28;21025;-73
2023/09/20 10:39:16;;;;;;;6.87;2.30;;;22.70;99.90;;;;;;5038892;28;20453;-73
2023/09/20 10:41:46;;;;;;;2.40;1.77;;;22.60;99.90;;;;;;5042161;28;20554;-75
2023/09/20 10:44:26;;;;;;;4.03;2.37;;;22.60;99.90;;;;;;5039408;28;20457;-74
2023/09/20 10:46:53;;;;;;;3.40;2.43;;;22.30;99.90;;;;;;5039005;28;20481;-74
2023/09/20 10:49:41;;;;;;;4.33;2.10;;;22.00;99.90;;;;;;5041004;28;20973;-73
2023/09/20 10:52:08;;;;;;;4.13;2.90;;;21.80;99.90;;;;;;5039866;28;20885;-73
2023/09/20 10:54:36;;;;;;;7.53;2.73;;;21.60;99.90;;;;;;5042215;28;20861;-74
2023/09/20 10:57:09;;;;;;;3.90;2.70;;;21.60;99.90;;;;;;5040236;28;20453;-75
2023/09/20 10:59:37;;;;;;;9.33;2.73;;;21.70;99.90;;;;;;5037832;28;20849;-75
2023/09/20 11:02:12;;;;;;;4.73;2.30;;;21.50;99.90;;;;;;5036440;28;20527;-75
2023/09/20 11:04:40;;;;;;;5.50;2.63;;;21.90;99.90;;;;;;5039084;28;20934;-75
2023/09/20 11:07:09;;;;;;;4.53;2.80;;;22.00;99.90;;;;;;5039610;28;21018;-74
2023/09/20 11:09:38;;;;;;;27.73;2.87;;;22.20;99.90;;;;;;5043025;28;20566;-73
2023/09/20 11:12:08;;;;;;;7.70;2.53;;;22.70;99.90;;;;;;5036551;28;20489;-74
2023/09/20 11:14:36;;;;;;;3.73;2.20;;;22.90;99.90;;;;;;5036132;28;20484;-74
2023/09/20 11:17:05;;;;;;;4.70;2.40;;;23.20;99.90;;;;;;5038051;28;20552;-74
2023/09/20 11:19:32;;;;;;;11.97;2.57;;;23.50;99.90;;;;;;5044191;28;20463;-74
2023/09/20 11:22:01;;;;;;;2.53;1.70;;;23.40;99.90;;;;;;5038153;28;20674;-75
2023/09/20 11:24:27;;;;;;;4.00;1.80;;;23.30;99.90;;;;;;5040783;28;20468;-75
2023/09/20 11:26:56;;;;;;;5.23;2.20;;;23.30;99.90;;;;;;5041207;28;20482;-75
2023/09/20 11:29:24;;;;;;;5.20;2.10;;;23.20;99.90;;;;;;5039522;28;20448;-76
2023/09/20 11:31:56;;;;;;;11.10;2.10;;;23.50;99.90;;;;;;5037412;28;20468;-75
2023/09/20 11:34:23;;;;;;;4.60;1.97;;;24.10;99.90;;;;;;5036955;28;20559;-75
2023/09/20 11:36:53;;;;;;;4.57;2.10;;;24.60;99.90;;;;;;5037484;28;20515;-75
2023/09/20 11:39:27;;;;;;;3.63;1.80;;;24.90;99.90;;;;;;5036022;28;20462;-75
2023/09/20 11:41:59;;;;;;;3.70;2.07;;;25.20;99.90;;;;;;5037720;28;20849;-75
2023/09/20 11:44:27;;;;;;;3.47;2.20;;;25.30;99.90;;;;;;5039945;28;20527;-75
2023/09/20 11:46:54;;;;;;;3.73;1.93;;;25.50;99.90;;;;;;5033665;28;20493;-74
2023/09/20 11:49:21;;;;;;;3.20;1.70;;;25.30;99.90;;;;;;5042294;28;20545;-74
2023/09/20 11:51:50;;;;;;;2.60;1.70;;;24.90;99.90;;;;;;5040751;28;20542;-75
2023/09/20 11:54:17;;;;;;;3.80;1.80;;;24.60;99.90;;;;;;5041216;28;20456;-75
2023/09/20 11:56:48;;;;;;;2.67;2.07;;;24.20;99.90;;;;;;5039582;28;20457;-76
2023/09/20 11:59:18;;;;;;;2.10;1.83;;;24.20;99.90;;;;;;5039476;28;20450;-76
2023/09/20 12:01:46;;;;;;;2.57;2.03;;;24.10;99.90;;;;;;5038208;28;20496;-75
2023/09/20 12:04:13;;;;;;;3.90;2.17;;;24.00;99.90;;;;;;5040571;28;20867;-75
2023/09/20 12:06:40;;;;;;;5.43;2.00;;;24.00;99.90;;;;;;5041701;28;20904;-74
2023/09/20 12:09:07;;;;;;;2.80;1.47;;;24.50;99.90;;;;;;5039005;28;20453;-75
2023/09/20 12:11:35;;;;;;;3.10;1.70;;;24.80;99.90;;;;;;5038496;28;20921;-76
2023/09/20 12:14:02;;;;;;;2.20;1.60;;;25.40;99.90;;;;;;5035406;28;20456;-75
2023/09/20 12:16:29;;;;;;;4.57;1.83;;;25.70;99.90;;;;;;5035486;28;20444;-75
2023/09/20 12:18:58;;;;;;;2.60;1.80;;;26.00;99.90;;;;;;5038535;28;20515;-75
2023/09/20 12:21:25;;;;;;;2.47;1.60;;;26.10;99.90;;;;;;5040493;28;20476;-74
2023/09/20 12:23:52;;;;;;;1.63;1.53;;;25.80;99.90;;;;;;5040059;28;20448;-76
2023/09/20 12:26:19;;;;;;;2.60;1.40;;;25.30;99.90;;;;;;5041001;28;20441;-75
2023/09/20 12:28:45;;;;;;;2.20;1.80;;;25.40;99.90;;;;;;5038234;28;20484;-75
2023/09/20 12:31:13;;;;;;;2.83;1.80;;;25.20;99.90;;;;;;5039142;28;20528;-74
2023/09/20 12:33:40;;;;;;;3.60;1.90;;;25.20;99.90;;;;;;5040893;28;20452;-75
2023/09/20 12:36:11;;;;;;;3.70;1.90;;;25.30;99.90;;;;;;5038226;28;20465;-74
2023/09/20 12:38:38;;;;;;;2.80;1.80;;;25.40;99.90;;;;;;5034392;28;20452;-74
2023/09/20 12:41:05;;;;;;;3.77;1.73;;;25.50;99.90;;;;;;5037926;28;20943;-75
2023/09/20 12:43:32;;;;;;;3.90;1.57;;;25.40;99.90;;;;;;5036094;28;20464;-75
2023/09/20 12:45:58;;;;;;;2.10;1.77;;;25.30;99.90;;;;;;5041731;28;20445;-74
2023/09/20 12:48:25;;;;;;;4.93;2.70;;;25.10;99.90;;;;;;5044210;28;20547;-75
2023/09/20 12:50:52;;;;;;;2.23;2.00;;;24.80;99.90;;;;;;5043144;28;20809;-75
2023/09/20 12:53:20;;;;;;;3.77;1.80;;;24.70;99.90;;;;;;5043460;28;21001;-75
2023/09/20 12:55:48;;;;;;;6.80;1.70;;;24.60;99.90;;;;;;5043468;28;20456;-74
2023/09/20 12:58:16;;;;;;;4.00;1.80;;;24.60;99.90;;;;;;5040477;28;20456;-74
2023/09/20 13:00:43;;;;;;;2.23;1.80;;;24.40;99.90;;;;;;5039763;28;20483;-74
2023/09/20 13:03:10;;;;;;;3.37;1.87;;;24.40;99.90;;;;;;5039916;28;20512;-74
2023/09/20 13:05:39;;;;;;;4.20;1.93;;;24.60;99.90;;;;;;5044571;28;20518;-75
2023/09/20 13:08:06;;;;;;;5.50;2.30;;;25.00;99.90;;;;;;5038714;28;20986;-74
2023/09/20 13:10:34;;;;;;;2.10;1.90;;;25.30;99.90;;;;;;5040542;28;20444;-74
2023/09/20 13:13:02;;;;;;;3.20;1.47;;;25.30;99.90;;;;;;5036507;28;20484;-74
2023/09/20 13:15:30;;;;;;;7.03;1.67;;;25.30;99.90;;;;;;5043583;28;20461;-74
2023/09/20 13:17:56;;;;;;;2.60;1.57;;;25.20;99.90;;;;;;5041220;28;20810;-75
2023/09/20 13:20:24;;;;;;;5.03;1.70;;;25.20;99.90;;;;;;5042992;28;20935;-75
2023/09/20 13:22:52;;;;;;;2.13;1.90;;;25.30;99.90;;;;;;5041742;28;20899;-75
2023/09/20 13:25:20;;;;;;;4.10;2.00;;;25.10;99.90;;;;;;5042043;28;20453;-75
2023/09/20 13:27:49;;;;;;;6.23;1.73;;;25.00;99.90;;;;;;5040193;28;21085;-75
2023/09/20 13:30:17;;;;;;;4.03;2.10;;;25.00;99.90;;;;;;5040904;28;20453;-75